Time;durP1;ratioP1;P1;durP2;ratioP2;P2;SDS_P1;SDS_P2;PMS_P1;PMS_P2;Temp;Humidity;BMP_temperature;BMP_pressure;BME280_temperature;BME280_humidity;BME280_pressure;Samples;Min_cycle;Max_cycle;Signal;HPM_P1;HPM_P2
2023/01/14 00:01:28;;;;;;;2.88;0.82;;;;;;;6.00;100.00;100495.81;4988524;28;20041;-77
2023/01/14 00:03:55;;;;;;;;;;;;;;;6.05;100.00;100489.81;4994602;28;20034;-77
2023/01/14 00:06:30;;;;;;;5.03;1.05;;;;;;;6.13;99.77;100489.88;4977099;28;19997;-79
2023/01/14 00:09:04;;;;;;;3.28;1.00;;;;;;;6.25;98.35;100500.34;4989633;28;20053;-78
2023/01/14 00:11:50;;;;;;;9.93;1.88;;;;;;;6.38;96.67;100488.28;5001080;28;20109;-77
2023/01/14 00:14:35;;;;;;;5.75;1.02;;;;;;;6.30;96.79;100492.56;4977494;28;20104;-76
2023/01/14 00:17:05;;;;;;;4.88;1.20;;;;;;;6.19;97.22;100492.53;4970169;28;20067;-77
2023/01/14 00:19:31;;;;;;;7.75;1.10;;;;;;;6.08;98.04;100500.22;4976764;28;20079;-78
2023/01/14 00:21:58;;;;;;;6.75;1.77;;;;;;;6.01;98.49;100511.44;4991458;28;20057;-76
2023/01/14 00:24:27;;;;;;;1.92;0.85;;;;;;;6.06;98.85;100516.66;4959805;28;20042;-79
2023/01/14 00:27:00;;;;;;;2.78;1.10;;;;;;;6.10;98.58;100503.72;5003686;28;20129;-76
2023/01/14 00:29:31;;;;;;;1.80;0.98;;;;;;;6.26;97.46;100511.63;4979642;28;20066;-76
2023/01/14 00:32:03;;;;;;;5.18;1.48;;;;;;;6.28;97.03;100517.69;4988960;28;20062;-79
2023/01/14 00:34:36;;;;;;;4.55;1.02;;;;;;;6.40;96.26;100516.88;4973548;28;20039;-78
2023/01/14 00:37:02;;;;;;;7.88;2.00;;;;;;;6.38;96.37;100518.63;5005643;28;20457;-77
2023/01/14 00:39:29;;;;;;;1.45;1.05;;;;;;;6.36;95.98;100513.41;4989514;28;20391;-76
2023/01/14 00:41:56;;;;;;;3.60;0.77;;;;;;;6.18;96.48;100519.38;4990338;28;20042;-76
2023/01/14 00:44:22;;;;;;;2.17;0.85;;;;;;;5.93;98.55;100518.25;4982326;28;20034;-78
2023/01/14 00:46:50;;;;;;;1.45;0.55;;;;;;;5.88;99.52;100512.16;4973713;28;20054;-79
2023/01/14 00:49:24;;;;;;;5.35;0.88;;;;;;;5.80;100.00;100515.59;4980630;28;20104;-76
2023/01/14 00:51:52;;;;;;;3.15;1.00;;;;;;;5.73;100.00;100523.31;4967911;28;20045;-78
2023/01/14 00:54:19;;;;;;;3.15;0.80;;;;;;;5.81;100.00;100529.44;4980164;28;21407;-77
2023/01/14 00:56:48;;;;;;;4.45;0.95;;;;;;;5.80;100.00;100519.88;4963581;28;20038;-75
2023/01/14 00:59:23;;;;;;;4.15;1.30;;;;;;;5.73;100.00;100539.75;4997599;28;20037;-77
2023/01/14 01:01:51;;;;;;;4.47;1.08;;;;;;;5.72;100.00;100534.53;4988429;28;20053;-79
2023/01/14 01:04:19;;;;;;;5.43;0.88;;;;;;;5.56;100.00;100543.94;4987186;28;20679;-79
2023/01/14 01:06:45;;;;;;;4.95;0.90;;;;;;;5.55;100.00;100549.97;5000732;28;20044;-77
2023/01/14 01:09:12;;;;;;;2.92;1.13;;;;;;;5.46;100.00;100548.13;4985144;28;20041;-77
2023/01/14 01:11:39;;;;;;;4.22;1.30;;;;;;;5.50;100.00;100554.25;4967964;28;20039;-78
2023/01/14 01:14:05;;;;;;;3.33;0.93;;;;;;;5.54;100.00;100553.41;4980385;28;20054;-77
2023/01/14 01:16:32;;;;;;;3.90;1.00;;;;;;;5.51;100.00;100541.28;4990027;28;20033;-76
2023/01/14 01:18:59;;;;;;;5.32;1.20;;;;;;;5.45;100.00;100549.03;4985464;28;20915;-77
2023/01/14 01:21:28;;;;;;;4.35;0.90;;;;;;;5.48;100.00;100546.44;4987134;28;20073;-75
2023/01/14 01:23:54;;;;;;;5.60;0.93;;;;;;;5.53;100.00;100556.84;4989756;28;20175;-78
2023/01/14 01:26:25;;;;;;;5.00;1.25;;;;;;;5.59;100.00;100557.81;5003742;28;20093;-78
2023/01/14 01:28:55;;;;;;;5.25;1.08;;;;;;;5.50;100.00;100559.44;4974546;28;20416;-78
2023/01/14 01:31:23;;;;;;;1.38;1.00;;;;;;;5.44;100.00;100560.25;4988135;28;20045;-79
2023/01/14 01:33:50;;;;;;;7.85;1.60;;;;;;;5.41;100.00;100560.19;4987449;28;20062;-78
2023/01/14 01:36:21;;;;;;;2.15;1.33;;;;;;;5.37;100.00;100564.50;4962823;28;20050;-79
2023/01/14 01:38:48;;;;;;;7.43;2.25;;;;;;;5.40;100.00;100567.13;4989816;28;20053;-78
2023/01/14 01:41:33;;;;;;;4.10;1.10;;;;;;;5.40;100.00;100576.66;4989023;28;20684;-79
2023/01/14 01:44:22;;;;;;;2.78;1.10;;;;;;;5.26;100.00;100576.50;4977996;28;20046;-78
2023/01/14 01:46:49;;;;;;;7.15;1.73;;;;;;;5.27;100.00;100573.03;4976539;28;20160;-76
2023/01/14 01:49:24;;;;;;;3.78;1.13;;;;;;;5.26;100.00;100585.13;4985508;28;20392;-77
2023/01/14 01:52:09;;;;;;;4.60;1.35;;;;;;;5.18;100.00;100588.50;4985385;28;20046;-76
2023/01/14 01:54:46;;;;;;;6.93;1.38;;;;;;;5.30;100.00;100593.84;4966026;28;20041;-77
2023/01/14 01:57:14;;;;;;;4.55;1.15;;;;;;;5.30;100.00;100596.44;5000699;28;20038;-77
2023/01/14 01:59:46;;;;;;;7.05;1.40;;;;;;;5.36;100.00;100599.09;4981860;28;20046;-78
2023/01/14 02:02:13;;;;;;;8.48;2.17;;;;;;;5.42;100.00;100590.50;4970107;28;20068;-78
2023/01/14 02:04:40;;;;;;;3.50;1.48;;;;;;;5.59;100.00;100593.28;4985331;28;20058;-77
2023/01/14 02:07:23;;;;;;;7.47;1.60;;;;;;;5.62;100.00;100599.38;4985709;28;20038;-79
2023/01/14 02:10:06;;;;;;;4.75;1.33;;;;;;;5.74;100.00;100614.22;4979369;28;20060;-77
2023/01/14 02:13:08;;;;;;;6.20;2.10;;;;;;;5.89;100.00;100604.84;4986447;28;20088;-78
2023/01/14 02:15:55;;;;;;;10.15;1.42;;;;;;;5.96;99.19;100619.63;4985356;28;20038;-78
2023/01/14 02:18:46;;;;;;;6.28;0.80;;;;;;;5.80;99.79;100616.00;4986969;28;20038;-77
2023/01/14 02:21:22;;;;;;;7.22;2.38;;;;;;;5.65;100.00;100615.88;4963011;28;20068;-76
2023/01/14 02:24:49;;;;;;;3.92;1.60;;;;;;;5.52;100.00;100623.50;4972189;28;20137;-79
2023/01/14 02:27:40;;;;;;;13.98;4.40;;;;;;;5.47;100.00;100620.00;4966077;28;20104;-79
2023/01/14 02:30:28;;;;;;;5.38;1.55;;;;;;;5.43;100.00;100613.88;4952769;28;20043;-77
2023/01/14 02:33:12;;;;;;;10.05;1.45;;;;;;;5.42;100.00;100617.34;5002534;28;20065;-78
2023/01/14 02:36:09;;;;;;;8.07;2.08;;;;;;;5.52;100.00;100625.25;4981831;28;20506;-80
2023/01/14 02:38:54;;;;;;;7.22;2.42;;;;;;;5.50;100.00;100622.63;4987099;28;20058;-78
2023/01/14 02:44:30;;;;;;;7.70;2.05;;;;;;;5.63;100.00;100621.91;4998210;28;20095;-80
2023/01/14 02:47:11;;;;;;;3.42;1.60;;;;;;;5.71;100.00;100634.09;5000531;28;20391;-76
2023/01/14 02:49:46;;;;;;;4.07;1.60;;;;;;;5.86;100.00;100626.47;4993315;28;20045;-77
2023/01/14 02:52:12;;;;;;;13.13;3.13;;;;;;;5.96;100.00;100623.09;5002047;28;20037;-78
2023/01/14 02:54:39;;;;;;;4.00;2.50;;;;;;;5.95;100.00;100608.34;4997830;28;20042;-80
2023/01/14 02:57:39;;;;;;;7.45;4.13;;;;;;;5.93;100.00;100607.50;4987056;28;20046;-78
2023/01/14 03:00:38;;;;;;;9.65;1.80;;;;;;;5.87;100.00;100607.44;4977649;28;20053;-77
2023/01/14 03:04:03;;;;;;;5.78;1.40;;;;;;;5.78;100.00;100607.34;4995559;28;20080;-77
2023/01/14 03:07:03;;;;;;;11.00;1.90;;;;;;;5.68;100.00;100605.50;4939549;28;20058;-78
2023/01/14 03:09:50;;;;;;;11.52;2.50;;;;;;;5.62;100.00;100607.19;4942468;28;20107;-81
2023/01/14 03:13:03;;;;;;;7.43;2.10;;;;;;;5.64;100.00;100607.19;4984773;28;20102;-80
2023/01/14 03:15:44;;;;;;;9.30;2.00;;;;;;;5.80;100.00;100624.69;5009465;28;20034;-77
2023/01/14 03:18:25;;;;;;;9.65;1.80;;;;;;;5.84;100.00;100614.31;5009775;28;20038;-80
2023/01/14 03:21:06;;;;;;;13.90;2.38;;;;;;;5.92;100.00;100620.47;4995322;28;20073;-80
2023/01/14 03:23:41;;;;;;;11.60;2.70;;;;;;;6.00;100.00;100615.34;4995655;28;20042;-79
2023/01/14 03:26:11;;;;;;;8.38;1.90;;;;;;;6.02;99.80;100618.84;4975822;28;20096;-77
2023/01/14 03:28:41;;;;;;;6.25;2.15;;;;;;;6.06;99.86;100608.50;4996620;28;20867;-77
2023/01/14 03:31:13;;;;;;;7.57;2.17;;;;;;;6.10;99.55;100614.56;5001985;28;20043;-76
2023/01/14 03:33:56;;;;;;;7.03;2.15;;;;;;;6.10;100.00;100609.38;5004905;28;20780;-76
2023/01/14 03:36:25;;;;;;;11.75;2.78;;;;;;;6.22;98.57;100604.31;4972218;28;20374;-78
2023/01/14 03:39:05;;;;;;;6.88;2.20;;;;;;;6.26;99.01;100602.59;4988722;28;20136;-76
2023/01/14 03:44:35;;;;;;;8.07;3.08;;;;;;;6.22;98.96;100617.31;4987855;28;20041;-76
2023/01/14 03:47:03;;;;;;;11.93;2.63;;;;;;;6.22;98.75;100613.81;4971863;28;20559;-81
2023/01/14 03:49:29;;;;;;;8.02;2.92;;;;;;;6.19;99.02;100617.28;4991428;28;20461;-78
2023/01/14 03:52:24;;;;;;;12.70;3.20;;;;;;;6.19;99.32;100627.69;4969663;28;20053;-81
2023/01/14 03:55:02;;;;;;;11.27;3.40;;;;;;;6.24;98.60;100625.09;4991017;28;20496;-78
2023/01/14 03:57:39;;;;;;;8.27;2.90;;;;;;;6.21;98.58;100625.94;4982132;28;20862;-78
2023/01/14 04:00:12;;;;;;;7.93;2.78;;;;;;;6.16;99.26;100630.22;4986811;28;20034;-78
2023/01/14 04:02:40;;;;;;;9.48;3.00;;;;;;;6.13;99.35;100623.28;4981524;28;20046;-77
2023/01/14 04:05:07;;;;;;;9.75;2.63;;;;;;;6.11;99.77;100621.53;4992675;28;20104;-76
2023/01/14 04:07:33;;;;;;;7.55;3.35;;;;;;;6.17;99.19;100623.31;4991943;28;20046;-77
2023/01/14 04:10:00;;;;;;;9.35;3.55;;;;;;;6.17;99.01;100620.72;4988034;28;20034;-81
2023/01/14 04:12:26;;;;;;;15.60;4.38;;;;;;;6.23;98.56;100615.56;4986595;28;20038;-81
2023/01/14 04:17:40;;;;;;;16.05;4.78;;;;;;;6.29;97.66;100626.88;4969809;28;20042;-77
2023/01/14 04:20:09;;;;;;;14.00;6.13;;;;;;;6.26;97.43;100626.84;4982347;28;20682;-78
2023/01/14 04:22:38;;;;;;;10.77;4.78;;;;;;;6.27;97.47;100622.53;4963562;28;20400;-78
2023/01/14 04:25:05;;;;;;;17.20;5.07;;;;;;;6.27;97.54;100625.13;4984131;28;20037;-78
2023/01/14 04:27:32;;;;;;;13.43;5.15;;;;;;;6.30;97.05;100635.56;4972171;28;20041;-77
2023/01/14 04:29:59;;;;;;;12.73;4.13;;;;;;;6.24;97.45;100631.16;4967651;28;20488;-79
2023/01/14 04:32:25;;;;;;;15.90;4.30;;;;;;;6.22;97.77;100632.91;4984919;28;20052;-77
2023/01/14 04:34:53;;;;;;;13.43;4.70;;;;;;;6.33;97.01;100632.13;4988353;28;20113;-77
2023/01/14 04:37:21;;;;;;;12.25;4.38;;;;;;;6.34;96.96;100634.72;4982589;28;20041;-76
2023/01/14 04:39:47;;;;;;;17.73;5.13;;;;;;;6.26;97.60;100626.84;5004097;28;20141;-78
2023/01/14 04:42:30;;;;;;;9.20;4.35;;;;;;;6.32;97.25;100622.56;5003202;28;20049;-76
2023/01/14 04:45:04;;;;;;;14.68;5.70;;;;;;;6.35;96.97;100626.06;5003459;28;20050;-78
2023/01/14 04:47:32;;;;;;;12.43;4.60;;;;;;;6.38;96.76;100620.88;4988331;28;20088;-79
2023/01/14 04:50:30;;;;;;;15.45;4.82;;;;;;;6.42;96.25;100611.38;4983629;28;20183;-77
2023/01/14 04:52:46;;;;;;;15.50;4.53;;;;;;;6.42;96.02;100609.63;4993324;28;20144;-78
2023/01/14 04:55:12;;;;;;;14.88;3.63;;;;;;;6.41;96.04;100618.31;4981423;28;20112;-76
2023/01/14 04:57:39;;;;;;;11.32;4.75;;;;;;;6.40;96.01;100626.09;4993748;28;20151;-76
2023/01/14 05:00:06;;;;;;;15.52;4.63;;;;;;;6.38;95.97;100622.63;4993665;28;20043;-75
2023/01/14 05:02:33;;;;;;;16.13;3.83;;;;;;;6.39;95.56;100619.19;4976134;28;20520;-75
2023/01/14 05:04:59;;;;;;;15.52;4.25;;;;;;;6.45;95.01;100614.00;4978226;28;20050;-79
2023/01/14 05:07:26;;;;;;;9.55;4.22;;;;;;;6.41;95.02;100620.03;4982847;28;20499;-79
2023/01/14 05:09:52;;;;;;;15.88;4.60;;;;;;;6.45;94.51;100624.41;4993754;28;20046;-78
2023/01/14 05:12:21;;;;;;;16.23;4.82;;;;;;;6.43;94.02;100614.00;4965273;28;20046;-76
2023/01/14 05:14:47;;;;;;;12.35;6.28;;;;;;;6.41;94.01;100620.94;4977138;28;20062;-80
2023/01/14 05:17:14;;;;;;;12.85;4.65;;;;;;;6.22;94.94;100614.69;4978705;28;20042;-80
2023/01/14 05:19:41;;;;;;;12.27;4.72;;;;;;;6.18;94.63;100612.03;4978309;28;20416;-77
2023/01/14 05:22:07;;;;;;;19.55;4.65;;;;;;;6.15;94.49;100610.28;4989677;28;21133;-75
2023/01/14 05:24:34;;;;;;;17.25;3.95;;;;;;;6.05;95.09;100618.88;4973703;28;20038;-76
2023/01/14 05:27:00;;;;;;;8.82;3.97;;;;;;;6.11;94.84;100625.00;4977665;28;20743;-78
2023/01/14 05:29:27;;;;;;;10.70;4.18;;;;;;;6.07;95.11;100611.97;4957345;28;20096;-80
2023/01/14 05:31:53;;;;;;;14.57;4.40;;;;;;;6.02;95.11;100608.44;4983455;28;20046;-77
2023/01/14 05:34:20;;;;;;;12.43;4.85;;;;;;;5.97;96.05;100605.75;4973817;28;21567;-77
2023/01/14 05:36:46;;;;;;;13.13;4.10;;;;;;;5.95;96.18;100608.34;4974272;28;20374;-77
2023/01/14 05:39:13;;;;;;;15.27;3.78;;;;;;;5.93;95.56;100611.78;4976129;28;20392;-79
2023/01/14 05:45:37;;;;;;;14.30;4.15;;;;;;;5.85;95.71;100619.50;4963818;28;20049;-75
2023/01/14 05:47:10;;;;;;;9.07;3.95;;;;;;;5.78;96.21;100616.00;4962925;28;20746;-76
2023/01/14 05:49:36;;;;;;;17.08;4.35;;;;;;;5.71;96.36;100616.81;4963514;28;20037;-76
2023/01/14 05:52:04;;;;;;;13.60;4.63;;;;;;;5.63;97.50;100605.44;4974927;28;20038;-79
2023/01/14 05:54:31;;;;;;;12.13;4.95;;;;;;;5.57;98.30;100601.06;4979399;28;20070;-78
2023/01/14 05:56:58;;;;;;;16.48;5.78;;;;;;;5.46;98.43;100606.16;4975026;28;20576;-80
2023/01/14 05:59:24;;;;;;;16.50;4.55;;;;;;;5.41;99.67;100602.63;4959180;28;20054;-79
2023/01/14 06:07:19;;;;;;;12.38;3.63;;;;;;;5.44;99.71;100594.88;4966144;28;20049;-77
2023/01/14 06:09:45;;;;;;;16.40;4.20;;;;;;;5.44;99.50;100591.41;4970598;28;20061;-76
2023/01/14 06:12:32;;;;;;;19.08;4.80;;;;;;;5.46;99.25;100590.56;4983013;28;20050;-76
2023/01/14 06:14:58;;;;;;;20.17;5.05;;;;;;;5.56;98.58;100586.34;4978762;28;20175;-80
2023/01/14 06:17:34;;;;;;;9.30;5.13;;;;;;;5.72;97.21;100577.00;4981765;28;20042;-77
2023/01/14 06:20:02;;;;;;;18.50;4.50;;;;;;;5.82;96.15;100583.13;4982629;28;20589;-81
2023/01/14 06:22:29;;;;;;;13.25;4.28;;;;;;;5.88;95.58;100571.91;4986560;28;20044;-76
2023/01/14 06:24:55;;;;;;;15.18;4.03;;;;;;;5.94;94.85;100566.78;4981174;28;20050;-81
2023/01/14 06:27:22;;;;;;;10.02;3.35;;;;;;;6.04;93.76;100567.78;4997191;28;20041;-76
2023/01/14 06:29:48;;;;;;;14.27;4.63;;;;;;;6.05;93.48;100566.88;4980823;28;20133;-82
2023/01/14 06:32:14;;;;;;;14.35;4.35;;;;;;;6.10;93.13;100560.00;4980818;28;20053;-78
2023/01/14 06:34:41;;;;;;;13.18;3.92;;;;;;;6.10;93.53;100560.88;4980538;28;20037;-76
2023/01/14 06:37:08;;;;;;;10.73;3.38;;;;;;;6.08;93.32;100554.81;4979022;28;20046;-78
2023/01/14 06:39:35;;;;;;;11.40;4.05;;;;;;;6.06;93.43;100558.25;4979889;28;20056;-75
2023/01/14 06:42:01;;;;;;;11.32;4.90;;;;;;;6.03;93.75;100553.88;4977253;28;20058;-75
2023/01/14 06:44:28;;;;;;;10.38;3.53;;;;;;;6.06;93.46;100550.44;4980618;28;20041;-75
2023/01/14 06:46:55;;;;;;;17.98;4.22;;;;;;;6.02;93.86;100551.28;4993828;28;20207;-75
2023/01/14 06:49:21;;;;;;;17.75;4.40;;;;;;;5.97;93.83;100540.81;4967271;28;21367;-75
2023/01/14 06:51:48;;;;;;;13.88;3.53;;;;;;;5.85;94.31;100543.31;4980938;28;20033;-78
2023/01/14 06:54:15;;;;;;;11.07;3.55;;;;;;;5.73;94.40;100550.13;4978983;28;20050;-76
2023/01/14 06:56:42;;;;;;;7.03;2.92;;;;;;;5.55;95.60;100544.78;4994172;28;20040;-75
2023/01/14 06:59:09;;;;;;;11.70;4.30;;;;;;;5.48;96.13;100549.03;4998029;28;20042;-78
2023/01/14 07:01:35;;;;;;;13.70;3.78;;;;;;;5.46;96.42;100549.03;4985803;28;20064;-78
2023/01/14 07:04:02;;;;;;;10.10;2.67;;;;;;;5.45;96.34;100549.03;4988527;28;20034;-75
2023/01/14 07:06:28;;;;;;;11.02;3.35;;;;;;;5.47;96.55;100532.59;4996967;28;20037;-75
2023/01/14 07:08:55;;;;;;;11.35;3.28;;;;;;;5.57;96.04;100543.06;4986020;28;20046;-78
2023/01/14 07:11:21;;;;;;;18.45;4.63;;;;;;;5.67;95.11;100526.72;4996796;28;20030;-76
2023/01/14 07:13:48;;;;;;;12.48;2.80;;;;;;;5.69;94.93;100534.53;4982297;28;20481;-76
2023/01/14 07:16:14;;;;;;;14.73;4.13;;;;;;;5.62;95.06;100529.28;4982147;28;20038;-86
2023/01/14 07:18:41;;;;;;;12.15;3.15;;;;;;;5.58;95.58;100526.63;4998529;28;20408;-79
2023/01/14 07:21:07;;;;;;;23.40;3.97;;;;;;;5.52;96.33;100524.84;4970001;28;20038;-80
2023/01/14 07:23:34;;;;;;;25.17;3.95;;;;;;;5.54;96.71;100523.16;4986599;28;20050;-83
2023/01/14 07:26:00;;;;;;;20.17;4.07;;;;;;;5.45;96.85;100516.13;5004953;28;20062;-80
2023/01/14 07:28:29;;;;;;;13.00;2.97;;;;;;;5.39;97.26;100521.25;4978843;28;20042;-80
2023/01/14 07:30:57;;;;;;;11.20;2.88;;;;;;;5.39;97.82;100515.19;4995271;28;20092;-78
2023/01/14 07:33:23;;;;;;;15.50;2.80;;;;;;;5.32;98.05;100505.59;4995445;28;20038;-80
2023/01/14 07:35:52;;;;;;;14.18;3.60;;;;;;;5.30;98.96;100498.66;4997122;28;20064;-79
2023/01/14 07:38:19;;;;;;;13.32;3.22;;;;;;;5.29;99.03;100494.34;4993040;28;20077;-83
2023/01/14 07:40:45;;;;;;;14.35;5.72;;;;;;;5.26;99.46;100483.91;4990215;28;20142;-81
2023/01/14 07:43:12;;;;;;;18.80;4.15;;;;;;;5.23;99.90;100473.50;4990907;28;20046;-82
2023/01/14 07:45:38;;;;;;;9.43;2.70;;;;;;;5.19;99.99;100463.06;4976487;28;20044;-83
2023/01/14 07:48:08;;;;;;;13.80;3.53;;;;;;;5.21;100.00;100462.22;5009451;28;20037;-82
2023/01/14 07:50:34;;;;;;;19.55;4.43;;;;;;;5.21;100.00;100464.81;4977878;28;20057;-83
2023/01/14 07:53:06;;;;;;;16.50;4.30;;;;;;;5.24;99.58;100466.59;4987121;28;20074;-80
2023/01/14 07:55:42;;;;;;;21.38;4.22;;;;;;;5.25;99.45;100465.75;4990414;28;20481;-82
2023/01/14 07:58:14;;;;;;;11.77;2.70;;;;;;;5.29;99.09;100454.53;4986274;28;20061;-81
2023/01/14 08:00:43;;;;;;;12.88;3.50;;;;;;;5.31;99.20;100452.81;5006421;28;20461;-84
2023/01/14 08:03:10;;;;;;;16.30;3.30;;;;;;;5.39;97.63;100456.34;4998316;28;20052;-79
2023/01/14 08:05:37;;;;;;;17.85;3.50;;;;;;;5.47;97.26;100459.03;4984949;28;20697;-81
2023/01/14 08:08:03;;;;;;;14.65;3.10;;;;;;;5.51;96.38;100454.72;4966832;28;20489;-81
2023/01/14 08:10:30;;;;;;;13.30;3.22;;;;;;;5.54;95.83;100452.16;4971953;28;20391;-83
2023/01/14 08:12:56;;;;;;;15.93;4.25;;;;;;;5.59;95.55;100450.47;4985962;28;20048;-82
2023/01/14 08:15:23;;;;;;;5.55;2.30;;;;;;;5.62;94.53;100450.50;4981299;28;20046;-79
2023/01/14 08:17:50;;;;;;;15.27;3.40;;;;;;;5.63;94.60;100450.50;4987973;28;20045;-79
2023/01/14 08:20:22;;;;;;;14.52;3.53;;;;;;;5.65;94.86;100452.25;4983830;28;20039;-80
2023/01/14 08:22:49;;;;;;;12.18;3.33;;;;;;;5.67;93.97;100453.13;4993626;28;20051;-77
2023/01/14 08:25:16;;;;;;;7.28;2.45;;;;;;;5.68;93.60;100457.47;4974706;28;20045;-80
2023/01/14 08:27:43;;;;;;;11.00;2.28;;;;;;;5.73;92.96;100463.56;4998424;28;20048;-81
2023/01/14 08:30:10;;;;;;;11.95;2.40;;;;;;;5.75;92.47;100459.25;4976616;28;20112;-79
2023/01/14 08:32:36;;;;;;;13.23;2.85;;;;;;;5.77;91.97;100455.78;4985961;28;20054;-81
2023/01/14 08:35:03;;;;;;;4.60;1.95;;;;;;;5.82;90.81;100452.38;4974219;28;20038;-80
2023/01/14 08:37:31;;;;;;;14.45;3.78;;;;;;;5.86;90.94;100447.22;4992270;28;20050;-79
2023/01/14 08:39:58;;;;;;;10.43;3.03;;;;;;;5.89;89.85;100449.84;4978282;28;20034;-83
2023/01/14 08:42:25;;;;;;;8.90;2.80;;;;;;;5.93;89.45;100449.00;4993904;28;20053;-78
2023/01/14 08:44:51;;;;;;;13.07;2.15;;;;;;;5.98;89.70;100433.47;4979856;28;20138;-80
2023/01/14 08:47:17;;;;;;;6.63;2.60;;;;;;;6.00;89.23;100433.47;4996293;28;20449;-80
2023/01/14 08:49:44;;;;;;;16.13;3.80;;;;;;;6.02;89.24;100432.63;4994005;28;20049;-82
2023/01/14 08:52:11;;;;;;;16.00;3.53;;;;;;;6.04;88.85;100422.25;4990196;28;20060;-78
2023/01/14 08:54:39;;;;;;;17.48;3.10;;;;;;;6.06;89.19;100413.59;5013145;28;20033;-80
2023/01/14 08:57:05;;;;;;;12.27;3.30;;;;;;;6.10;88.56;100409.28;5001389;28;20121;-82
2023/01/14 08:59:32;;;;;;;11.05;3.22;;;;;;;6.13;88.66;100398.91;4982625;28;20107;-80
2023/01/14 09:01:58;;;;;;;6.97;3.15;;;;;;;6.13;88.52;100397.16;5008256;28;20505;-82
2023/01/14 09:04:25;;;;;;;15.13;4.80;;;;;;;6.15;88.78;100381.56;4976633;28;20034;-81
2023/01/14 09:18:00;;;;;;;10.30;3.10;;;;;;;6.31;87.42;100353.06;4991074;28;20038;-80
2023/01/14 09:20:31;;;;;;;9.35;3.05;;;;;;;6.33;87.20;100351.34;4973150;28;20042;-79
2023/01/14 09:22:59;;;;;;;9.45;2.78;;;;;;;6.35;87.45;100347.88;4972156;28;20035;-80
2023/01/14 09:25:26;;;;;;;6.63;3.15;;;;;;;6.39;87.25;100347.03;4989033;28;20040;-81
2023/01/14 09:27:52;;;;;;;12.23;2.20;;;;;;;6.38;86.81;100336.63;4967339;28;20046;-82
2023/01/14 09:30:19;;;;;;;10.15;2.88;;;;;;;6.40;86.94;100332.28;4997475;28;20053;-79
2023/01/14 09:32:46;;;;;;;8.82;2.90;;;;;;;6.43;86.95;100327.09;4968444;28;20042;-81
2023/01/14 09:35:12;;;;;;;10.20;1.95;;;;;;;6.43;87.13;100333.16;4981423;28;20051;-79
2023/01/14 09:37:39;;;;;;;10.82;2.42;;;;;;;6.42;86.82;100331.41;4978941;28;20035;-81
2023/01/14 09:40:07;;;;;;;5.28;2.17;;;;;;;6.49;87.01;100327.09;4983653;28;20038;-80
2023/01/14 09:42:40;;;;;;;8.75;2.33;;;;;;;6.50;86.86;100323.66;4976310;28;20034;-80
2023/01/14 09:45:24;;;;;;;11.35;2.15;;;;;;;6.51;86.55;100330.59;4978793;28;20038;-81
2023/01/14 09:47:51;;;;;;;;;;;;;;;6.53;86.49;100321.06;4983100;28;20058;-80
2023/01/14 09:50:58;;;;;;;11.82;2.72;;;;;;;6.53;86.41;100318.47;4984173;28;19925;-79
2023/01/14 09:53:58;;;;;;;12.43;2.92;;;;;;;6.51;86.14;100316.72;4996197;28;20541;-80
2023/01/14 09:56:45;;;;;;;9.32;2.30;;;;;;;6.51;86.15;100304.59;4981509;28;20384;-81
2023/01/14 09:59:28;;;;;;;9.30;2.20;;;;;;;6.49;86.68;100303.69;4983614;28;20061;-79
2023/01/14 10:02:20;;;;;;;12.30;3.63;;;;;;;6.48;86.77;100294.19;4982769;28;20066;-82
2023/01/14 10:05:21;;;;;;;9.35;2.38;;;;;;;6.46;86.39;100285.50;4958279;28;20059;-83
2023/01/14 10:07:49;;;;;;;9.43;2.45;;;;;;;6.46;86.63;100283.75;4978915;28;20042;-84
2023/01/14 10:10:30;;;;;;;9.77;2.60;;;;;;;6.46;86.79;100270.75;4979463;28;20494;-81
2023/01/14 10:13:03;;;;;;;8.15;1.90;;;;;;;6.47;86.42;100261.25;4981616;28;20054;-79
2023/01/14 10:16:00;;;;;;;8.20;2.53;;;;;;;6.43;86.48;100249.09;4980988;28;20388;-83
2023/01/14 10:18:37;;;;;;;5.75;2.20;;;;;;;6.39;87.77;100240.44;4983167;28;20049;-82
2023/01/14 10:21:13;;;;;;;10.80;2.78;;;;;;;6.37;88.10;100231.75;4974807;28;20121;-81
2023/01/14 10:23:41;;;;;;;11.77;2.50;;;;;;;6.36;89.07;100231.75;4982598;28;20473;-81
2023/01/14 10:26:15;;;;;;;7.93;2.97;;;;;;;6.37;89.55;100220.50;4980336;28;21157;-80
2023/01/14 10:28:46;;;;;;;10.93;2.72;;;;;;;6.39;89.38;100216.19;4984111;28;20206;-81
2023/01/14 10:31:28;;;;;;;11.57;2.22;;;;;;;6.39;89.39;100208.38;4987255;28;20038;-81
2023/01/14 10:33:55;;;;;;;9.70;2.50;;;;;;;6.40;89.04;100199.69;4970746;28;20073;-80
2023/01/14 10:36:29;;;;;;;8.05;2.47;;;;;;;6.41;89.27;100196.22;4987077;28;20042;-80
2023/01/14 10:38:56;;;;;;;;;;;;;;;6.42;89.18;100195.38;4985075;28;20042;-81
2023/01/14 10:44:04;;;;;;;15.35;2.72;;;;;;;6.45;90.25;100167.66;4997740;28;20054;-79
2023/01/14 10:46:34;;;;;;;6.40;1.90;;;;;;;6.45;90.92;100174.56;4985507;28;20034;-80
2023/01/14 10:49:18;;;;;;;6.75;2.60;;;;;;;6.46;91.98;100169.34;5006175;28;20038;-81
2023/01/14 10:52:21;;;;;;;11.20;2.92;;;;;;;6.43;93.95;100168.50;4987692;28;20431;-83
2023/01/14 10:55:24;;;;;;;9.70;1.40;;;;;;;6.31;96.33;100158.09;4999901;28;21300;-83
2023/01/14 10:58:08;;;;;;;6.32;1.98;;;;;;;6.18;98.66;100152.00;4970443;28;20038;-79
2023/01/14 11:00:50;;;;;;;7.55;2.47;;;;;;;6.07;100.00;100139.00;4981660;28;20125;-81
2023/01/14 11:03:36;;;;;;;7.57;1.60;;;;;;;6.01;100.00;100129.50;5002489;28;20124;-80
2023/01/14 11:06:30;;;;;;;;;;;;;;;;;;;;;
2023/01/14 11:09:03;;;;;;;12.32;3.30;;;;;;;5.98;100.00;100113.88;4972377;28;20050;-84
2023/01/14 11:11:42;;;;;;;13.40;2.20;;;;;;;5.97;100.00;100117.31;4998086;28;20050;-81
2023/01/14 11:14:36;;;;;;;10.02;2.65;;;;;;;5.94;100.00;100106.91;4972051;28;20046;-81
2023/01/14 11:17:33;;;;;;;10.43;3.55;;;;;;;5.90;100.00;100087.00;4969448;28;20072;-83
2023/01/14 11:20:29;;;;;;;5.38;2.10;;;;;;;5.84;100.00;100085.28;4998993;28;20034;-83
2023/01/14 11:23:54;;;;;;;9.20;1.95;;;;;;;5.80;100.00;100088.72;4983667;28;20037;-79
2023/01/14 11:26:35;;;;;;;7.93;1.90;;;;;;;5.74;100.00;100071.41;4981633;28;20046;-81
2023/01/14 11:29:42;;;;;;;7.38;2.40;;;;;;;5.73;100.00;100055.81;4987965;28;20030;-79
2023/01/14 11:32:32;;;;;;;;;;;;;;;;;;;;;
2023/01/14 11:38:25;;;;;;;9.02;2.38;;;;;;;5.70;100.00;100015.13;4967982;28;20191;-80
2023/01/14 11:41:32;;;;;;;2.95;1.67;;;;;;;5.66;100.00;99991.75;4952299;28;20141;-83
2023/01/14 11:44:15;;;;;;;9.13;2.38;;;;;;;5.68;100.00;99979.63;4999588;28;20045;-84
2023/01/14 11:47:22;;;;;;;12.13;2.67;;;;;;;5.67;100.00;99959.72;4987228;28;20533;-83
2023/01/14 11:50:18;;;;;;;4.28;2.00;;;;;;;5.70;100.00;99951.94;4986061;28;20057;-81
2023/01/14 11:53:03;;;;;;;5.53;1.55;;;;;;;5.66;100.00;99948.47;4970023;28;20167;-85
2023/01/14 11:56:04;;;;;;;8.30;1.60;;;;;;;5.68;100.00;99938.09;4971496;28;20045;-80
2023/01/14 11:58:38;;;;;;;5.28;1.25;;;;;;;5.69;100.00;99921.66;4979860;28;20039;-85
2023/01/14 12:01:28;;;;;;;10.02;2.50;;;;;;;5.74;100.00;99909.53;4988274;28;20091;-80
2023/01/14 12:04:08;;;;;;;5.88;1.58;;;;;;;5.77;100.00;99912.97;4983619;28;20057;-81
2023/01/14 12:07:01;;;;;;;6.60;1.65;;;;;;;5.80;100.00;99889.59;4983583;28;20707;-86
2023/01/14 12:09:48;;;;;;;3.33;1.88;;;;;;;5.84;100.00;99880.06;4966583;28;20041;-82
2023/01/14 12:12:27;;;;;;;7.93;1.83;;;;;;;5.86;100.00;99870.53;4981074;28;20073;-83
2023/01/14 12:18:04;;;;;;;7.57;2.92;;;;;;;5.86;100.00;99836.75;4951641;28;20050;-83
2023/01/14 12:20:33;;;;;;;14.00;2.22;;;;;;;5.86;100.00;99836.75;4979438;28;20038;-86
2023/01/14 12:23:06;;;;;;;7.25;2.17;;;;;;;5.86;100.00;99815.13;4979742;28;20054;-79
2023/01/14 12:25:46;;;;;;;10.02;2.15;;;;;;;5.86;100.00;99809.94;4981727;28;20050;-82
2023/01/14 12:28:32;;;;;;;7.32;2.40;;;;;;;5.85;100.00;99814.25;4993084;28;20077;-81
2023/01/14 12:31:07;;;;;;;5.68;2.10;;;;;;;5.88;100.00;99797.78;4985055;28;20065;-79
2023/01/14 12:33:53;;;;;;;8.30;1.98;;;;;;;5.87;100.00;99796.09;4984573;28;20039;-85
2023/01/14 12:36:23;;;;;;;13.20;2.85;;;;;;;5.89;100.00;99792.63;4971631;28;20038;-82
2023/01/14 12:47:51;;;;;;;9.57;2.53;;;;;;;5.92;100.00;99738.03;4940666;28;20039;-81
2023/01/14 12:50:17;;;;;;;8.98;2.30;;;;;;;5.95;100.00;99734.56;4961730;28;20046;-82